Surrey Half Marathon
10 Mar 2019

     
Click your name for detailed results

Page 1 of 72 (3559 items)
PosBib NoNameGun TimeChip TimeCategoryCat PosGenderGen PosClubCompany nameAge GradePace
452471Emma DAVIS1:20:11.81:20:08.4Top 31Female1WARD PARK RUNNERS 81.50 9.8 m/hr
494997Lesley LOCKS1:20:31.21:20:29.6Top 32Female2HART ROAD RUNNERS 84.94 9.8 m/hr
662606Lucie CUSTANCE1:21:40.21:21:37.8Top 33Female3CLAPHAM CHASERS 82.10 9.6 m/hr
714920Hannah PULLEN1:22:08.71:22:04.8Sen1Female4WAVERLEY HARRIERS 79.40 9.6 m/hr
726172Julia BIJL1:22:10.91:22:07.5Sen2Female5LONDON HEATHSIDE 79.49 9.6 m/hr
1016494Lucy THRAVES1:24:03.31:23:58.9Sen3Female6CHICHESTER RUNNERS 77.57 9.4 m/hr
1142270Catrin TYLER1:24:43.91:24:41.0Sen4Female7LONDON HEATHSIDE 77.14 9.3 m/hr
1425949Catherine HUTTON1:25:57.01:25:45.9Sen5Female8DESFORD STRIDERS 77.22 9.1 m/hr
1476192Eve BUGLER1:26:05.61:26:02.2Sen6Female9CLAPHAM CHASERS 76.07 9.1 m/hr
1493299Ruby WYLES1:26:08.31:26:05.7Sen7Female10GUILDFORD & GODALMING AC 79.47 9.1 m/hr
1525946Georgina FURZE1:26:15.01:25:47.1Sen8Female11WOKING AC 75.68 9.1 m/hr
1644979Helen BARRAN1:26:42.21:26:38.1V401Female12HASLEMERE BORDERS AC 78.88 9.1 m/hr
1685963Jessica TROY1:26:46.11:26:35.0Sen9Female13CITY OF YORK 75.72 9.1 m/hr
1715364Jenny MILLETT1:26:55.41:26:49.9Sen10Female14TRI SURREY 75.03 9.0 m/hr
1992494Emmie LE MARCHAND1:27:59.51:27:51.0Sen11Female15 74.10 8.9 m/hr
2052704Victoria HASLAM1:28:11.11:28:03.8Sen12Female1626.2 ROAD RUNNERS CLUB 74.02 8.9 m/hr
2412015Lauren MILLER1:29:11.41:28:52.8Sen13Female17 73.24 8.8 m/hr
2476161Sarah-Jane BARRABLE1:29:16.81:28:48.6Sen14Female18 73.54 8.8 m/hr
2505361Sylwia WARD1:29:19.71:29:07.4V402Female19STUBBINGTON GREEN RUNNERS 76.01 8.8 m/hr
2712501Amy HICKS1:30:01.31:29:52.4Sen15Female20CLAPHAM CHASERS 72.43 8.7 m/hr
2726756Emma MURPHY1:30:02.01:29:47.1Sen16Female21 73.72 8.7 m/hr
3006485Helen TACZYNSKI1:31:24.81:30:28.3Sen17Female22COLCHESTER HARRIERS 73.35 8.6 m/hr
3182999Lucia TREGELLIS1:32:06.71:31:26.1Sen18Female23WOKING AC 71.49 8.5 m/hr
3224702Lucy HURN1:32:18.41:31:48.1V403Female24WINDRUSH TRI 73.56 8.5 m/hr
3486259Alice FORBES1:33:05.61:32:43.7Sen19Female25RANELAGH HARRIERS 70.04 8.4 m/hr
3545666Liz STEWARD1:33:15.61:32:45.2Sen20Female26DENMEAD STRIDERS 71.51 8.4 m/hr
3614603Anna-Marie MCGRAW1:33:30.61:33:21.1Sen21Female27 69.72 8.4 m/hr
3694229Claire WICKS1:33:43.31:33:21.5Sen22Female28 71.54 8.4 m/hr
3775968Kate BROWNING1:34:02.11:33:48.7Sen23Female29 69.34 8.4 m/hr
3892449Megan WOODWORTH1:34:25.31:34:08.5Sen24Female30CLAPHAM PIONEERS 69.05 8.3 m/hr
3956194Felicity BULL1:34:29.21:34:14.1Sen25Female31 69.53 8.3 m/hr
4062237Vanessa GILMARTIN1:34:43.11:34:31.0V404Female327OAKS TRI CLUB 72.78 8.3 m/hr
4094402Emma LEAHEY1:34:45.91:34:29.0Sen26Female33 68.80 8.3 m/hr
4125017Claire PEPPER1:34:50.91:34:15.9Sen27Female34LONDON CITY AC 69.04 8.3 m/hr
4282884Kath TAYLOR1:35:11.01:34:55.9V405Female35MERCER - WOKING 70.87 8.3 m/hr
4305191Kate OSLER1:35:18.51:33:15.6Sen28Female36 68.88 8.2 m/hr
4335659Abby ROSS1:35:19.61:34:52.0V406Female37 72.31 8.2 m/hr
4395979Delphine VOELTZEL1:35:28.91:35:18.4Sen29Female38CLAPHAM CHASERS 68.76 8.2 m/hr
4435164Michelle EDYE1:35:32.51:35:03.3Sen30Female39CLAPHAM CHASERS 68.54 8.2 m/hr
4486433Naomi RHODES1:35:38.81:34:47.6Sen31Female40 68.17 8.2 m/hr
4522755Dorothy WILKINSON1:35:41.91:35:04.6V501Female41ELMBRIDGE ROAD RUNNERS 78.42 8.2 m/hr
4575652Emma MCKECHNIE1:35:44.91:35:20.4Sen32Female42 69.66 8.2 m/hr
4713193Louise FARRELL1:36:05.11:35:35.2V451Female43VICEROYS TRIATHLON CLUB 73.02 8.2 m/hr
4733154Debbie PINDER1:36:06.81:35:19.9V407Female44HORSLEY SHUFFLERS 70.65 8.2 m/hr
4863525Lizzie SHAW1:36:23.61:35:15.4Sen33Female45 67.64 8.2 m/hr
4946732Lucinda BAYLISS1:36:33.01:35:46.3Sen34Female46 67.70 8.1 m/hr
4982023Molly SAVILL1:36:35.11:36:23.4Sen35Female47HORSFORTH HARRIERS 67.51 8.1 m/hr
5012439Margarita MURILLO BENITEZ1:36:36.91:35:44.2Sen36Female48 67.48 8.1 m/hr
5025266Katherine ELLIS1:36:42.01:36:26.5Sen37Female49CLAPHAM CHASERS 69.34 8.1 m/hr
5066758Jay HADFIELD1:36:46.51:36:09.9V452Female50ELMBRIDGE ROAD RUNNERS 74.83 8.1 m/hr
Page 1 of 72 (3559 items)
   

fb